sensor_id;sensor_type;location;lat;lon;timestamp;temperature;humidity
38910;DHT22;24676;51.360;12.354;2024-01-25T00:02:10;8.50;99.90
38910;DHT22;24676;51.360;12.354;2024-01-25T00:04:54;8.50;99.90
38910;DHT22;24676;51.360;12.354;2024-01-25T00:07:48;8.50;99.90
38910;DHT22;24676;51.360;12.354;2024-01-25T00:10:32;8.50;99.90
38910;DHT22;24676;51.360;12.354;2024-01-25T00:13:16;8.50;99.90
38910;DHT22;24676;51.360;12.354;2024-01-25T00:16:01;8.40;99.90
38910;DHT22;24676;51.360;12.354;2024-01-25T00:18:45;8.50;99.90
38910;DHT22;24676;51.360;12.354;2024-01-25T00:21:29;8.50;99.90
38910;DHT22;24676;51.360;12.354;2024-01-25T00:24:13;8.40;99.90
38910;DHT22;24676;51.360;12.354;2024-01-25T00:26:57;8.40;99.90
38910;DHT22;24676;51.360;12.354;2024-01-25T00:29:42;8.40;99.90
38910;DHT22;24676;51.360;12.354;2024-01-25T00:32:26;8.40;99.90
38910;DHT22;24676;51.360;12.354;2024-01-25T00:35:10;8.40;99.90
38910;DHT22;24676;51.360;12.354;2024-01-25T00:37:56;8.40;99.90
38910;DHT22;24676;51.360;12.354;2024-01-25T00:40:41;8.40;99.90
38910;DHT22;24676;51.360;12.354;2024-01-25T00:43:25;8.40;99.90
38910;DHT22;24676;51.360;12.354;2024-01-25T00:46:10;8.40;99.90
38910;DHT22;24676;51.360;12.354;2024-01-25T00:48:54;8.40;99.90
38910;DHT22;24676;51.360;12.354;2024-01-25T00:51:38;8.40;99.90
38910;DHT22;24676;51.360;12.354;2024-01-25T00:54:26;8.40;99.90
38910;DHT22;24676;51.360;12.354;2024-01-25T00:57:10;8.40;99.90
38910;DHT22;24676;51.360;12.354;2024-01-25T00:59:55;8.40;99.90
38910;DHT22;24676;51.360;12.354;2024-01-25T01:02:40;8.40;99.90
38910;DHT22;24676;51.360;12.354;2024-01-25T01:05:25;8.40;99.90
38910;DHT22;24676;51.360;12.354;2024-01-25T01:08:09;8.40;99.90
38910;DHT22;24676;51.360;12.354;2024-01-25T01:10:53;8.40;99.90
38910;DHT22;24676;51.360;12.354;2024-01-25T01:13:37;8.40;99.90
38910;DHT22;24676;51.360;12.354;2024-01-25T01:16:22;8.40;99.90
38910;DHT22;24676;51.360;12.354;2024-01-25T01:19:06;8.40;99.90
38910;DHT22;24676;51.360;12.354;2024-01-25T01:21:51;8.40;99.90
38910;DHT22;24676;51.360;12.354;2024-01-25T01:24:35;8.40;99.90
38910;DHT22;24676;51.360;12.354;2024-01-25T01:27:19;8.40;99.90
38910;DHT22;24676;51.360;12.354;2024-01-25T01:30:05;8.40;99.90
38910;DHT22;24676;51.360;12.354;2024-01-25T01:32:52;8.40;99.90
38910;DHT22;24676;51.360;12.354;2024-01-25T01:35:36;8.40;99.90
38910;DHT22;24676;51.360;12.354;2024-01-25T01:38:20;8.40;99.90
38910;DHT22;24676;51.360;12.354;2024-01-25T01:41:04;8.30;99.90
38910;DHT22;24676;51.360;12.354;2024-01-25T01:43:52;8.30;99.90
38910;DHT22;24676;51.360;12.354;2024-01-25T01:46:36;8.30;99.90
38910;DHT22;24676;51.360;12.354;2024-01-25T01:49:21;8.30;99.90
38910;DHT22;24676;51.360;12.354;2024-01-25T01:52:06;8.40;99.90
38910;DHT22;24676;51.360;12.354;2024-01-25T01:54:51;8.40;99.90
38910;DHT22;24676;51.360;12.354;2024-01-25T01:57:35;8.30;99.90
38910;DHT22;24676;51.360;12.354;2024-01-25T02:00:20;8.40;99.90
38910;DHT22;24676;51.360;12.354;2024-01-25T02:03:04;8.40;99.90
38910;DHT22;24676;51.360;12.354;2024-01-25T02:05:48;8.40;99.90
38910;DHT22;24676;51.360;12.354;2024-01-25T02:08:32;8.30;99.90
38910;DHT22;24676;51.360;12.354;2024-01-25T02:11:17;8.30;99.90
38910;DHT22;24676;51.360;12.354;2024-01-25T02:14:01;8.30;99.90
38910;DHT22;24676;51.360;12.354;2024-01-25T02:16:45;8.30;99.90
38910;DHT22;24676;51.360;12.354;2024-01-25T02:19:30;8.30;99.90
38910;DHT22;24676;51.360;12.354;2024-01-25T02:22:16;8.20;99.90
38910;DHT22;24676;51.360;12.354;2024-01-25T02:25:00;8.20;99.90
38910;DHT22;24676;51.360;12.354;2024-01-25T02:27:44;8.20;99.90
38910;DHT22;24676;51.360;12.354;2024-01-25T02:30:28;8.20;99.90
38910;DHT22;24676;51.360;12.354;2024-01-25T02:33:13;8.10;99.90
38910;DHT22;24676;51.360;12.354;2024-01-25T02:35:57;8.20;99.90
38910;DHT22;24676;51.360;12.354;2024-01-25T02:38:41;8.10;99.90
38910;DHT22;24676;51.360;12.354;2024-01-25T02:41:25;8.10;99.90
38910;DHT22;24676;51.360;12.354;2024-01-25T02:44:12;8.00;99.90
38910;DHT22;24676;51.360;12.354;2024-01-25T02:46:57;8.00;99.90
38910;DHT22;24676;51.360;12.354;2024-01-25T02:49:41;8.00;99.90
38910;DHT22;24676;51.360;12.354;2024-01-25T02:52:25;7.90;99.90
38910;DHT22;24676;51.360;12.354;2024-01-25T02:55:09;7.90;99.90
38910;DHT22;24676;51.360;12.354;2024-01-25T02:57:53;7.80;99.90
38910;DHT22;24676;51.360;12.354;2024-01-25T03:00:37;7.80;99.90
38910;DHT22;24676;51.360;12.354;2024-01-25T03:03:22;7.80;99.90
38910;DHT22;24676;51.360;12.354;2024-01-25T03:06:07;7.70;99.90
38910;DHT22;24676;51.360;12.354;2024-01-25T03:08:53;7.60;99.90
38910;DHT22;24676;51.360;12.354;2024-01-25T03:11:37;7.60;99.90
38910;DHT22;24676;51.360;12.354;2024-01-25T03:14:21;7.50;99.90
38910;DHT22;24676;51.360;12.354;2024-01-25T03:17:05;7.40;99.90
38910;DHT22;24676;51.360;12.354;2024-01-25T03:19:50;7.40;99.90
38910;DHT22;24676;51.360;12.354;2024-01-25T03:22:34;7.30;99.90
38910;DHT22;24676;51.360;12.354;2024-01-25T03:25:18;7.30;99.90
38910;DHT22;24676;51.360;12.354;2024-01-25T03:28:02;7.30;99.90
38910;DHT22;24676;51.360;12.354;2024-01-25T03:30:47;7.30;99.90
38910;DHT22;24676;51.360;12.354;2024-01-25T03:33:31;7.40;99.90
38910;DHT22;24676;51.360;12.354;2024-01-25T03:36:16;7.40;99.90
38910;DHT22;24676;51.360;12.354;2024-01-25T03:39:00;7.40;99.90
38910;DHT22;24676;51.360;12.354;2024-01-25T03:41:44;7.40;99.90
38910;DHT22;24676;51.360;12.354;2024-01-25T03:44:28;7.40;99.90
38910;DHT22;24676;51.360;12.354;2024-01-25T03:47:13;7.40;99.90
38910;DHT22;24676;51.360;12.354;2024-01-25T03:49:57;7.30;99.90
38910;DHT22;24676;51.360;12.354;2024-01-25T03:52:41;7.40;99.90
38910;DHT22;24676;51.360;12.354;2024-01-25T03:55:25;7.40;99.90
38910;DHT22;24676;51.360;12.354;2024-01-25T03:58:09;7.40;99.90
38910;DHT22;24676;51.360;12.354;2024-01-25T04:00:54;7.40;99.90
38910;DHT22;24676;51.360;12.354;2024-01-25T04:03:38;7.50;99.90
38910;DHT22;24676;51.360;12.354;2024-01-25T04:06:22;7.50;99.90
38910;DHT22;24676;51.360;12.354;2024-01-25T04:09:06;7.40;99.90
38910;DHT22;24676;51.360;12.354;2024-01-25T04:11:50;7.40;99.90
38910;DHT22;24676;51.360;12.354;2024-01-25T04:14:34;7.40;99.90
38910;DHT22;24676;51.360;12.354;2024-01-25T04:17:19;7.40;99.90
38910;DHT22;24676;51.360;12.354;2024-01-25T04:20:03;7.30;99.90
38910;DHT22;24676;51.360;12.354;2024-01-25T04:22:47;7.40;99.90
38910;DHT22;24676;51.360;12.354;2024-01-25T04:25:31;7.40;99.90
38910;DHT22;24676;51.360;12.354;2024-01-25T04:28:15;7.40;99.90
38910;DHT22;24676;51.360;12.354;2024-01-25T04:31:01;7.40;99.90
38910;DHT22;24676;51.360;12.354;2024-01-25T04:33:45;7.40;99.90
38910;DHT22;24676;51.360;12.354;2024-01-25T04:36:29;7.40;99.90
38910;DHT22;24676;51.360;12.354;2024-01-25T04:39:14;7.40;99.90
38910;DHT22;24676;51.360;12.354;2024-01-25T04:41:58;7.40;99.90
38910;DHT22;24676;51.360;12.354;2024-01-25T04:44:42;7.40;99.90
38910;DHT22;24676;51.360;12.354;2024-01-25T04:47:26;7.50;99.90
38910;DHT22;24676;51.360;12.354;2024-01-25T04:50:10;7.50;99.90
38910;DHT22;24676;51.360;12.354;2024-01-25T04:52:55;7.50;99.90
38910;DHT22;24676;51.360;12.354;2024-01-25T04:55:39;7.50;99.90
38910;DHT22;24676;51.360;12.354;2024-01-25T04:58:23;7.50;99.90
38910;DHT22;24676;51.360;12.354;2024-01-25T05:01:07;7.50;99.90
38910;DHT22;24676;51.360;12.354;2024-01-25T05:03:52;7.50;99.90
38910;DHT22;24676;51.360;12.354;2024-01-25T05:06:36;7.50;99.90
38910;DHT22;24676;51.360;12.354;2024-01-25T05:09:21;7.50;99.90
38910;DHT22;24676;51.360;12.354;2024-01-25T05:12:05;7.50;99.90
38910;DHT22;24676;51.360;12.354;2024-01-25T05:14:49;7.50;99.90
38910;DHT22;24676;51.360;12.354;2024-01-25T05:17:33;7.50;99.90
38910;DHT22;24676;51.360;12.354;2024-01-25T05:20:17;7.40;99.90
38910;DHT22;24676;51.360;12.354;2024-01-25T05:23:02;7.50;99.90
38910;DHT22;24676;51.360;12.354;2024-01-25T05:25:47;7.40;99.90
38910;DHT22;24676;51.360;12.354;2024-01-25T05:28:31;7.50;99.90
38910;DHT22;24676;51.360;12.354;2024-01-25T05:31:15;7.50;99.90
38910;DHT22;24676;51.360;12.354;2024-01-25T05:34:00;7.50;99.90
38910;DHT22;24676;51.360;12.354;2024-01-25T05:36:44;7.50;99.90
38910;DHT22;24676;51.360;12.354;2024-01-25T05:39:28;7.50;99.90
38910;DHT22;24676;51.360;12.354;2024-01-25T05:42:12;7.50;99.90
38910;DHT22;24676;51.360;12.354;2024-01-25T05:44:56;7.50;99.90
38910;DHT22;24676;51.360;12.354;2024-01-25T05:47:41;7.50;99.90
38910;DHT22;24676;51.360;12.354;2024-01-25T05:50:25;7.50;99.90
38910;DHT22;24676;51.360;12.354;2024-01-25T05:53:09;7.60;99.90
38910;DHT22;24676;51.360;12.354;2024-01-25T05:55:53;7.60;99.90
38910;DHT22;24676;51.360;12.354;2024-01-25T05:58:37;7.60;99.90
38910;DHT22;24676;51.360;12.354;2024-01-25T06:01:21;7.60;99.90
38910;DHT22;24676;51.360;12.354;2024-01-25T06:04:06;7.60;99.90
38910;DHT22;24676;51.360;12.354;2024-01-25T06:06:50;7.50;99.90
38910;DHT22;24676;51.360;12.354;2024-01-25T06:09:34;7.60;99.90
38910;DHT22;24676;51.360;12.354;2024-01-25T06:12:18;7.60;99.90
38910;DHT22;24676;51.360;12.354;2024-01-25T06:15:02;7.60;99.90
38910;DHT22;24676;51.360;12.354;2024-01-25T06:17:46;7.60;99.90
38910;DHT22;24676;51.360;12.354;2024-01-25T06:20:31;7.60;99.90
38910;DHT22;24676;51.360;12.354;2024-01-25T06:23:15;7.70;99.90
38910;DHT22;24676;51.360;12.354;2024-01-25T06:25:59;7.70;99.90
38910;DHT22;24676;51.360;12.354;2024-01-25T06:28:43;7.60;99.90
38910;DHT22;24676;51.360;12.354;2024-01-25T06:31:27;7.60;99.90
38910;DHT22;24676;51.360;12.354;2024-01-25T06:34:11;7.60;99.90
38910;DHT22;24676;51.360;12.354;2024-01-25T06:36:56;7.60;99.90
38910;DHT22;24676;51.360;12.354;2024-01-25T06:39:40;7.60;99.90
38910;DHT22;24676;51.360;12.354;2024-01-25T06:42:24;7.70;99.90
38910;DHT22;24676;51.360;12.354;2024-01-25T06:45:08;7.70;99.90
38910;DHT22;24676;51.360;12.354;2024-01-25T06:47:53;7.70;99.90
38910;DHT22;24676;51.360;12.354;2024-01-25T06:50:37;7.70;99.90
38910;DHT22;24676;51.360;12.354;2024-01-25T06:53:21;7.70;99.90
38910;DHT22;24676;51.360;12.354;2024-01-25T06:56:05;7.70;99.90
38910;DHT22;24676;51.360;12.354;2024-01-25T06:58:50;7.70;99.90
38910;DHT22;24676;51.360;12.354;2024-01-25T07:01:34;7.70;99.90
38910;DHT22;24676;51.360;12.354;2024-01-25T07:04:18;7.60;99.90
38910;DHT22;24676;51.360;12.354;2024-01-25T07:07:03;7.70;99.90
38910;DHT22;24676;51.360;12.354;2024-01-25T07:09:47;7.70;99.90
38910;DHT22;24676;51.360;12.354;2024-01-25T07:12:31;7.70;99.90
38910;DHT22;24676;51.360;12.354;2024-01-25T07:15:18;7.80;99.90
38910;DHT22;24676;51.360;12.354;2024-01-25T07:18:02;7.80;99.90
38910;DHT22;24676;51.360;12.354;2024-01-25T07:20:47;7.80;99.90
38910;DHT22;24676;51.360;12.354;2024-01-25T07:23:32;7.80;99.90
38910;DHT22;24676;51.360;12.354;2024-01-25T07:26:20;7.80;99.90
38910;DHT22;24676;51.360;12.354;2024-01-25T07:29:05;7.90;99.90
38910;DHT22;24676;51.360;12.354;2024-01-25T07:31:50;7.90;99.90
38910;DHT22;24676;51.360;12.354;2024-01-25T07:34:34;7.90;99.90
38910;DHT22;24676;51.360;12.354;2024-01-25T07:37:18;8.00;99.90
38910;DHT22;24676;51.360;12.354;2024-01-25T07:40:03;8.10;99.90
38910;DHT22;24676;51.360;12.354;2024-01-25T07:42:50;8.20;99.90
38910;DHT22;24676;51.360;12.354;2024-01-25T07:45:34;8.20;99.90
38910;DHT22;24676;51.360;12.354;2024-01-25T07:48:19;8.20;99.90
38910;DHT22;24676;51.360;12.354;2024-01-25T07:51:05;8.30;99.90
38910;DHT22;24676;51.360;12.354;2024-01-25T07:53:54;8.40;99.90
38910;DHT22;24676;51.360;12.354;2024-01-25T07:56:38;8.40;99.90
38910;DHT22;24676;51.360;12.354;2024-01-25T07:59:22;8.40;99.90
38910;DHT22;24676;51.360;12.354;2024-01-25T08:02:07;8.40;99.90
38910;DHT22;24676;51.360;12.354;2024-01-25T08:04:51;8.40;99.90
38910;DHT22;24676;51.360;12.354;2024-01-25T08:07:35;8.40;99.90
38910;DHT22;24676;51.360;12.354;2024-01-25T08:10:20;8.40;99.90
38910;DHT22;24676;51.360;12.354;2024-01-25T08:13:04;8.40;99.90
38910;DHT22;24676;51.360;12.354;2024-01-25T08:15:48;8.40;99.90
38910;DHT22;24676;51.360;12.354;2024-01-25T08:18:33;8.40;99.90
38910;DHT22;24676;51.360;12.354;2024-01-25T08:21:17;8.20;99.90
38910;DHT22;24676;51.360;12.354;2024-01-25T08:24:01;8.20;99.90
38910;DHT22;24676;51.360;12.354;2024-01-25T08:26:46;8.10;99.90
38910;DHT22;24676;51.360;12.354;2024-01-25T08:29:30;8.10;99.90
38910;DHT22;24676;51.360;12.354;2024-01-25T08:32:14;8.10;99.90
38910;DHT22;24676;51.360;12.354;2024-01-25T08:34:58;8.10;99.90
38910;DHT22;24676;51.360;12.354;2024-01-25T08:37:43;8.10;99.90
38910;DHT22;24676;51.360;12.354;2024-01-25T08:40:27;8.20;99.90
38910;DHT22;24676;51.360;12.354;2024-01-25T08:43:11;8.10;99.90
38910;DHT22;24676;51.360;12.354;2024-01-25T08:45:55;8.10;99.90
38910;DHT22;24676;51.360;12.354;2024-01-25T08:48:39;8.10;99.90
38910;DHT22;24676;51.360;12.354;2024-01-25T08:51:24;8.20;99.90
38910;DHT22;24676;51.360;12.354;2024-01-25T08:54:08;8.20;99.90
38910;DHT22;24676;51.360;12.354;2024-01-25T08:56:52;8.20;99.90
38910;DHT22;24676;51.360;12.354;2024-01-25T08:59:37;8.20;99.90
38910;DHT22;24676;51.360;12.354;2024-01-25T09:02:21;8.30;99.90
38910;DHT22;24676;51.360;12.354;2024-01-25T09:05:10;8.40;99.90
38910;DHT22;24676;51.360;12.354;2024-01-25T09:07:54;8.50;99.90
38910;DHT22;24676;51.360;12.354;2024-01-25T09:10:39;8.60;99.90
38910;DHT22;24676;51.360;12.354;2024-01-25T09:13:24;8.70;99.90
38910;DHT22;24676;51.360;12.354;2024-01-25T09:16:08;8.80;99.90
38910;DHT22;24676;51.360;12.354;2024-01-25T09:18:52;8.90;99.90
38910;DHT22;24676;51.360;12.354;2024-01-25T09:21:39;9.00;99.90
38910;DHT22;24676;51.360;12.354;2024-01-25T09:24:23;9.00;99.90
38910;DHT22;24676;51.360;12.354;2024-01-25T09:27:08;9.00;99.90
38910;DHT22;24676;51.360;12.354;2024-01-25T09:29:52;9.00;99.90
38910;DHT22;24676;51.360;12.354;2024-01-25T09:32:36;9.00;99.90
38910;DHT22;24676;51.360;12.354;2024-01-25T09:35:20;9.10;99.90
38910;DHT22;24676;51.360;12.354;2024-01-25T09:38:04;9.20;99.90
38910;DHT22;24676;51.360;12.354;2024-01-25T09:40:49;9.20;99.90
38910;DHT22;24676;51.360;12.354;2024-01-25T09:43:33;9.20;99.90
38910;DHT22;24676;51.360;12.354;2024-01-25T09:46:17;9.20;99.90
38910;DHT22;24676;51.360;12.354;2024-01-25T09:49:02;9.80;99.90
38910;DHT22;24676;51.360;12.354;2024-01-25T09:51:46;10.70;99.90
38910;DHT22;24676;51.360;12.354;2024-01-25T09:54:35;11.30;99.90
38910;DHT22;24676;51.360;12.354;2024-01-25T09:57:21;12.00;97.00
38910;DHT22;24676;51.360;12.354;2024-01-25T10:00:06;12.30;91.70
38910;DHT22;24676;51.360;12.354;2024-01-25T10:02:55;12.50;90.90
38910;DHT22;24676;51.360;12.354;2024-01-25T10:05:40;12.40;90.30
38910;DHT22;24676;51.360;12.354;2024-01-25T10:08:24;12.50;89.70
38910;DHT22;24676;51.360;12.354;2024-01-25T10:11:08;12.70;83.30
38910;DHT22;24676;51.360;12.354;2024-01-25T10:13:52;12.50;82.10
38910;DHT22;24676;51.360;12.354;2024-01-25T10:16:37;12.10;86.10
38910;DHT22;24676;51.360;12.354;2024-01-25T10:19:22;12.00;89.00
38910;DHT22;24676;51.360;12.354;2024-01-25T10:22:06;11.70;90.90
38910;DHT22;24676;51.360;12.354;2024-01-25T10:24:52;11.40;93.20
38910;DHT22;24676;51.360;12.354;2024-01-25T10:27:40;11.20;96.70
38910;DHT22;24676;51.360;12.354;2024-01-25T10:30:24;10.90;97.00
38910;DHT22;24676;51.360;12.354;2024-01-25T10:33:08;10.60;99.90
38910;DHT22;24676;51.360;12.354;2024-01-25T10:35:59;10.40;99.90
38910;DHT22;24676;51.360;12.354;2024-01-25T10:38:46;10.50;99.90
38910;DHT22;24676;51.360;12.354;2024-01-25T10:41:31;10.70;99.90
38910;DHT22;24676;51.360;12.354;2024-01-25T10:44:19;10.60;99.90
38910;DHT22;24676;51.360;12.354;2024-01-25T10:47:03;10.40;99.90
38910;DHT22;24676;51.360;12.354;2024-01-25T10:49:49;10.40;99.90
38910;DHT22;24676;51.360;12.354;2024-01-25T10:52:34;10.40;99.90
38910;DHT22;24676;51.360;12.354;2024-01-25T10:55:19;10.30;99.90
38910;DHT22;24676;51.360;12.354;2024-01-25T10:58:03;10.30;99.90
38910;DHT22;24676;51.360;12.354;2024-01-25T11:00:51;10.30;99.90
38910;DHT22;24676;51.360;12.354;2024-01-25T11:03:36;10.40;99.90
38910;DHT22;24676;51.360;12.354;2024-01-25T11:06:21;10.40;99.90
38910;DHT22;24676;51.360;12.354;2024-01-25T11:09:06;10.50;99.90
38910;DHT22;24676;51.360;12.354;2024-01-25T11:11:50;10.60;99.90
38910;DHT22;24676;51.360;12.354;2024-01-25T11:14:38;10.80;99.20
38910;DHT22;24676;51.360;12.354;2024-01-25T11:17:22;10.70;98.60
38910;DHT22;24676;51.360;12.354;2024-01-25T11:20:12;10.50;99.60
38910;DHT22;24676;51.360;12.354;2024-01-25T11:23:06;10.30;99.90
38910;DHT22;24676;51.360;12.354;2024-01-25T11:25:54;10.30;99.90
38910;DHT22;24676;51.360;12.354;2024-01-25T11:28:38;10.30;99.90
38910;DHT22;24676;51.360;12.354;2024-01-25T11:31:22;10.30;99.90
38910;DHT22;24676;51.360;12.354;2024-01-25T11:34:09;10.30;99.90
38910;DHT22;24676;51.360;12.354;2024-01-25T11:36:54;10.40;99.90
38910;DHT22;24676;51.360;12.354;2024-01-25T11:39:38;10.50;99.90
38910;DHT22;24676;51.360;12.354;2024-01-25T11:42:22;11.00;99.90
38910;DHT22;24676;51.360;12.354;2024-01-25T11:45:07;11.40;98.70
38910;DHT22;24676;51.360;12.354;2024-01-25T11:47:53;11.70;94.70
38910;DHT22;24676;51.360;12.354;2024-01-25T11:50:37;11.60;92.60
38910;DHT22;24676;51.360;12.354;2024-01-25T11:53:21;11.60;92.20
38910;DHT22;24676;51.360;12.354;2024-01-25T11:56:06;11.50;91.70
38910;DHT22;24676;51.360;12.354;2024-01-25T11:58:51;11.60;92.20
38910;DHT22;24676;51.360;12.354;2024-01-25T12:01:36;11.70;91.50
38910;DHT22;24676;51.360;12.354;2024-01-25T12:04:20;11.60;91.70
38910;DHT22;24676;51.360;12.354;2024-01-25T12:07:05;12.00;91.70
38910;DHT22;24676;51.360;12.354;2024-01-25T12:10:05;11.80;88.10
38910;DHT22;24676;51.360;12.354;2024-01-25T12:12:49;11.60;91.00
38910;DHT22;24676;51.360;12.354;2024-01-25T12:15:33;11.30;92.00
38910;DHT22;24676;51.360;12.354;2024-01-25T12:18:18;11.00;94.80
38910;DHT22;24676;51.360;12.354;2024-01-25T12:21:03;10.90;96.00
38910;DHT22;24676;51.360;12.354;2024-01-25T12:23:47;10.90;96.90
38910;DHT22;24676;51.360;12.354;2024-01-25T12:26:33;10.70;98.00
38910;DHT22;24676;51.360;12.354;2024-01-25T12:29:18;10.60;99.90
38910;DHT22;24676;51.360;12.354;2024-01-25T12:32:02;10.50;99.90
38910;DHT22;24676;51.360;12.354;2024-01-25T12:34:56;10.50;99.90
38910;DHT22;24676;51.360;12.354;2024-01-25T12:37:40;10.40;99.90
38910;DHT22;24676;51.360;12.354;2024-01-25T12:40:24;10.30;99.90
38910;DHT22;24676;51.360;12.354;2024-01-25T12:43:09;10.00;99.90
38910;DHT22;24676;51.360;12.354;2024-01-25T12:45:53;9.80;99.90
38910;DHT22;24676;51.360;12.354;2024-01-25T12:48:37;9.70;99.90
38910;DHT22;24676;51.360;12.354;2024-01-25T12:51:21;9.70;99.90
38910;DHT22;24676;51.360;12.354;2024-01-25T12:54:06;9.80;99.90
38910;DHT22;24676;51.360;12.354;2024-01-25T12:56:50;9.70;99.90
38910;DHT22;24676;51.360;12.354;2024-01-25T12:59:35;9.60;99.90
38910;DHT22;24676;51.360;12.354;2024-01-25T13:02:19;9.50;99.90
38910;DHT22;24676;51.360;12.354;2024-01-25T13:05:03;9.50;99.90
38910;DHT22;24676;51.360;12.354;2024-01-25T13:07:47;9.40;99.90
38910;DHT22;24676;51.360;12.354;2024-01-25T13:10:32;9.40;99.90
38910;DHT22;24676;51.360;12.354;2024-01-25T13:13:16;9.30;99.90
38910;DHT22;24676;51.360;12.354;2024-01-25T13:16:00;9.20;99.90
38910;DHT22;24676;51.360;12.354;2024-01-25T13:18:44;9.20;99.90
38910;DHT22;24676;51.360;12.354;2024-01-25T13:21:29;9.20;99.90
38910;DHT22;24676;51.360;12.354;2024-01-25T13:24:13;9.20;99.90
38910;DHT22;24676;51.360;12.354;2024-01-25T13:26:57;9.30;99.90
38910;DHT22;24676;51.360;12.354;2024-01-25T13:29:41;9.50;99.90
38910;DHT22;24676;51.360;12.354;2024-01-25T13:32:25;9.60;99.90
38910;DHT22;24676;51.360;12.354;2024-01-25T13:35:10;9.80;99.90
38910;DHT22;24676;51.360;12.354;2024-01-25T13:37:54;9.90;99.90
38910;DHT22;24676;51.360;12.354;2024-01-25T13:40:38;10.00;99.90
38910;DHT22;24676;51.360;12.354;2024-01-25T13:43:22;9.90;99.90
38910;DHT22;24676;51.360;12.354;2024-01-25T13:46:06;9.80;99.90
38910;DHT22;24676;51.360;12.354;2024-01-25T13:48:50;9.70;99.90
38910;DHT22;24676;51.360;12.354;2024-01-25T13:51:35;9.70;99.90
38910;DHT22;24676;51.360;12.354;2024-01-25T13:54:19;9.50;99.90
38910;DHT22;24676;51.360;12.354;2024-01-25T13:57:03;9.30;99.90
38910;DHT22;24676;51.360;12.354;2024-01-25T13:59:47;9.10;99.90
38910;DHT22;24676;51.360;12.354;2024-01-25T14:02:32;9.00;99.90
38910;DHT22;24676;51.360;12.354;2024-01-25T14:05:16;8.80;99.90
38910;DHT22;24676;51.360;12.354;2024-01-25T14:08:01;8.70;99.90
38910;DHT22;24676;51.360;12.354;2024-01-25T14:10:45;8.70;99.90
38910;DHT22;24676;51.360;12.354;2024-01-25T14:13:29;8.70;99.90
38910;DHT22;24676;51.360;12.354;2024-01-25T14:16:15;8.60;99.90
38910;DHT22;24676;51.360;12.354;2024-01-25T14:19:01;8.50;99.90
38910;DHT22;24676;51.360;12.354;2024-01-25T14:21:47;8.50;99.90
38910;DHT22;24676;51.360;12.354;2024-01-25T14:24:32;8.40;99.90
38910;DHT22;24676;51.360;12.354;2024-01-25T14:27:17;8.40;99.90
38910;DHT22;24676;51.360;12.354;2024-01-25T14:30:01;8.40;99.90
38910;DHT22;24676;51.360;12.354;2024-01-25T14:32:47;8.30;99.90
38910;DHT22;24676;51.360;12.354;2024-01-25T14:35:31;8.40;99.90
38910;DHT22;24676;51.360;12.354;2024-01-25T14:38:15;8.30;99.90
38910;DHT22;24676;51.360;12.354;2024-01-25T14:40:59;8.20;99.90
38910;DHT22;24676;51.360;12.354;2024-01-25T14:43:43;8.20;99.90
38910;DHT22;24676;51.360;12.354;2024-01-25T14:46:28;8.10;99.90
38910;DHT22;24676;51.360;12.354;2024-01-25T14:49:12;8.10;99.90
38910;DHT22;24676;51.360;12.354;2024-01-25T14:51:56;8.00;99.90
38910;DHT22;24676;51.360;12.354;2024-01-25T14:54:43;8.00;99.90
38910;DHT22;24676;51.360;12.354;2024-01-25T14:57:28;7.90;99.90
38910;DHT22;24676;51.360;12.354;2024-01-25T15:00:12;7.90;99.90
38910;DHT22;24676;51.360;12.354;2024-01-25T15:03:03;7.90;99.90
38910;DHT22;24676;51.360;12.354;2024-01-25T15:05:47;7.90;99.90
38910;DHT22;24676;51.360;12.354;2024-01-25T15:08:31;7.80;99.90
38910;DHT22;24676;51.360;12.354;2024-01-25T15:11:15;7.70;99.90
38910;DHT22;24676;51.360;12.354;2024-01-25T15:13:59;7.70;99.90
38910;DHT22;24676;51.360;12.354;2024-01-25T15:16:43;7.60;99.90
38910;DHT22;24676;51.360;12.354;2024-01-25T15:19:28;7.50;99.90
38910;DHT22;24676;51.360;12.354;2024-01-25T15:22:12;7.40;99.90
38910;DHT22;24676;51.360;12.354;2024-01-25T15:24:56;7.30;99.90
38910;DHT22;24676;51.360;12.354;2024-01-25T15:27:40;7.30;99.90
38910;DHT22;24676;51.360;12.354;2024-01-25T15:30:24;7.20;99.90
38910;DHT22;24676;51.360;12.354;2024-01-25T15:33:09;7.10;99.90
38910;DHT22;24676;51.360;12.354;2024-01-25T15:35:53;7.00;99.90
38910;DHT22;24676;51.360;12.354;2024-01-25T15:38:37;7.00;99.90
38910;DHT22;24676;51.360;12.354;2024-01-25T15:41:21;6.90;99.90
38910;DHT22;24676;51.360;12.354;2024-01-25T15:44:05;6.80;99.90
38910;DHT22;24676;51.360;12.354;2024-01-25T15:46:50;6.70;99.90
38910;DHT22;24676;51.360;12.354;2024-01-25T15:49:34;6.70;99.90
38910;DHT22;24676;51.360;12.354;2024-01-25T15:52:18;6.60;99.90
38910;DHT22;24676;51.360;12.354;2024-01-25T15:55:06;6.60;99.90
38910;DHT22;24676;51.360;12.354;2024-01-25T15:57:50;6.50;99.90
38910;DHT22;24676;51.360;12.354;2024-01-25T16:00:34;6.40;99.90
38910;DHT22;24676;51.360;12.354;2024-01-25T16:03:18;6.30;99.90
38910;DHT22;24676;51.360;12.354;2024-01-25T16:06:03;6.30;99.90
38910;DHT22;24676;51.360;12.354;2024-01-25T16:08:47;6.30;99.90
38910;DHT22;24676;51.360;12.354;2024-01-25T16:11:31;6.20;99.90
38910;DHT22;24676;51.360;12.354;2024-01-25T16:14:16;6.20;99.90
38910;DHT22;24676;51.360;12.354;2024-01-25T16:17:00;6.10;99.90
38910;DHT22;24676;51.360;12.354;2024-01-25T16:19:45;6.10;99.90
38910;DHT22;24676;51.360;12.354;2024-01-25T16:22:29;6.20;99.90
38910;DHT22;24676;51.360;12.354;2024-01-25T16:25:13;6.10;99.90
38910;DHT22;24676;51.360;12.354;2024-01-25T16:27:58;6.10;99.90
38910;DHT22;24676;51.360;12.354;2024-01-25T16:30:42;6.10;99.90
38910;DHT22;24676;51.360;12.354;2024-01-25T16:33:26;6.00;99.90
38910;DHT22;24676;51.360;12.354;2024-01-25T16:36:11;6.00;99.90
38910;DHT22;24676;51.360;12.354;2024-01-25T16:38:55;6.00;99.90
38910;DHT22;24676;51.360;12.354;2024-01-25T16:41:39;6.00;99.90
38910;DHT22;24676;51.360;12.354;2024-01-25T16:44:23;6.00;99.90
38910;DHT22;24676;51.360;12.354;2024-01-25T16:47:07;5.90;99.90
38910;DHT22;24676;51.360;12.354;2024-01-25T16:49:52;5.80;99.90
38910;DHT22;24676;51.360;12.354;2024-01-25T16:52:36;5.80;99.90
38910;DHT22;24676;51.360;12.354;2024-01-25T16:55:20;5.80;99.90
38910;DHT22;24676;51.360;12.354;2024-01-25T16:58:04;5.70;99.90
38910;DHT22;24676;51.360;12.354;2024-01-25T17:00:49;5.70;99.90
38910;DHT22;24676;51.360;12.354;2024-01-25T17:03:35;5.70;99.90
38910;DHT22;24676;51.360;12.354;2024-01-25T17:06:19;5.60;99.90
38910;DHT22;24676;51.360;12.354;2024-01-25T17:09:03;5.60;99.90
38910;DHT22;24676;51.360;12.354;2024-01-25T17:11:47;5.60;99.90
38910;DHT22;24676;51.360;12.354;2024-01-25T17:14:32;5.50;99.90
38910;DHT22;24676;51.360;12.354;2024-01-25T17:17:16;5.40;99.90